sensor_id;sensor_type;location;lat;lon;timestamp;P1;durP1;ratioP1;P2;durP2;ratioP2
16387;SDS011;8303;53.446;9.988;2022-12-01T05:45:32;138.70;;;55.00;;
16387;SDS011;8303;53.446;9.988;2022-12-01T05:48:00;141.73;;;51.33;;
16387;SDS011;8303;53.446;9.988;2022-12-01T05:50:27;135.07;;;50.67;;
16387;SDS011;8303;53.446;9.988;2022-12-01T05:52:55;131.93;;;50.00;;
16387;SDS011;8303;53.446;9.988;2022-12-01T05:55:23;145.25;;;59.08;;
16387;SDS011;8303;53.446;9.988;2022-12-01T05:57:50;142.17;;;52.87;;
16387;SDS011;8303;53.446;9.988;2022-12-01T06:00:17;127.87;;;49.70;;
16387;SDS011;8303;53.446;9.988;2022-12-01T06:02:48;129.47;;;49.73;;
16387;SDS011;8303;53.446;9.988;2022-12-01T06:05:15;124.43;;;48.47;;
16387;SDS011;8303;53.446;9.988;2022-12-01T06:07:43;135.53;;;51.03;;
16387;SDS011;8303;53.446;9.988;2022-12-01T06:10:10;129.77;;;49.23;;
16387;SDS011;8303;53.446;9.988;2022-12-01T06:12:38;136.07;;;48.33;;
16387;SDS011;8303;53.446;9.988;2022-12-01T06:15:05;131.80;;;47.37;;
16387;SDS011;8303;53.446;9.988;2022-12-01T06:17:33;133.13;;;49.07;;
16387;SDS011;8303;53.446;9.988;2022-12-01T06:20:02;133.37;;;50.13;;
16387;SDS011;8303;53.446;9.988;2022-12-01T06:22:29;131.80;;;48.27;;
16387;SDS011;8303;53.446;9.988;2022-12-01T06:24:56;134.27;;;50.43;;
16387;SDS011;8303;53.446;9.988;2022-12-01T06:27:26;118.60;;;46.77;;
16387;SDS011;8303;53.446;9.988;2022-12-01T06:29:53;119.43;;;46.37;;
16387;SDS011;8303;53.446;9.988;2022-12-01T06:32:20;144.77;;;50.70;;
16387;SDS011;8303;53.446;9.988;2022-12-01T06:34:50;133.97;;;48.70;;
16387;SDS011;8303;53.446;9.988;2022-12-01T06:37:21;125.90;;;47.77;;
16387;SDS011;8303;53.446;9.988;2022-12-01T06:39:48;133.10;;;48.73;;
16387;SDS011;8303;53.446;9.988;2022-12-01T06:42:15;140.37;;;50.67;;
16387;SDS011;8303;53.446;9.988;2022-12-01T06:44:42;129.10;;;49.77;;
16387;SDS011;8303;53.446;9.988;2022-12-01T06:47:10;128.13;;;47.20;;
16387;SDS011;8303;53.446;9.988;2022-12-01T06:49:37;146.47;;;48.37;;
16387;SDS011;8303;53.446;9.988;2022-12-01T06:52:04;130.50;;;49.80;;
16387;SDS011;8303;53.446;9.988;2022-12-01T06:54:33;145.43;;;48.00;;
16387;SDS011;8303;53.446;9.988;2022-12-01T06:57:01;148.47;;;50.67;;
16387;SDS011;8303;53.446;9.988;2022-12-01T06:59:28;158.37;;;50.57;;
16387;SDS011;8303;53.446;9.988;2022-12-01T07:01:55;152.33;;;50.27;;
16387;SDS011;8303;53.446;9.988;2022-12-01T07:04:23;131.90;;;45.30;;
16387;SDS011;8303;53.446;9.988;2022-12-01T07:06:50;151.47;;;49.13;;
16387;SDS011;8303;53.446;9.988;2022-12-01T07:09:17;160.53;;;51.33;;
16387;SDS011;8303;53.446;9.988;2022-12-01T07:11:46;146.77;;;49.80;;
16387;SDS011;8303;53.446;9.988;2022-12-01T07:14:17;159.43;;;48.97;;
16387;SDS011;8303;53.446;9.988;2022-12-01T07:16:47;153.20;;;49.20;;
16387;SDS011;8303;53.446;9.988;2022-12-01T07:19:15;159.13;;;49.13;;
16387;SDS011;8303;53.446;9.988;2022-12-01T07:21:42;163.97;;;49.77;;
16387;SDS011;8303;53.446;9.988;2022-12-01T07:24:09;169.63;;;51.57;;
16387;SDS011;8303;53.446;9.988;2022-12-01T07:26:39;162.13;;;49.67;;
16387;SDS011;8303;53.446;9.988;2022-12-01T07:29:08;164.73;;;50.37;;
16387;SDS011;8303;53.446;9.988;2022-12-01T07:31:36;175.17;;;51.77;;
16387;SDS011;8303;53.446;9.988;2022-12-01T07:34:04;177.07;;;52.83;;
16387;SDS011;8303;53.446;9.988;2022-12-01T07:36:31;191.00;;;53.23;;
16387;SDS011;8303;53.446;9.988;2022-12-01T07:38:59;165.80;;;51.20;;
16387;SDS011;8303;53.446;9.988;2022-12-01T07:41:29;177.07;;;51.40;;
16387;SDS011;8303;53.446;9.988;2022-12-01T07:43:57;168.23;;;50.53;;
16387;SDS011;8303;53.446;9.988;2022-12-01T07:46:48;172.37;;;50.07;;
16387;SDS011;8303;53.446;9.988;2022-12-01T07:49:15;172.53;;;51.40;;
16387;SDS011;8303;53.446;9.988;2022-12-01T07:51:45;180.03;;;49.97;;
16387;SDS011;8303;53.446;9.988;2022-12-01T07:54:12;179.10;;;49.70;;
16387;SDS011;8303;53.446;9.988;2022-12-01T07:56:39;172.93;;;51.20;;
16387;SDS011;8303;53.446;9.988;2022-12-01T07:59:06;167.33;;;48.13;;
16387;SDS011;8303;53.446;9.988;2022-12-01T08:01:35;181.70;;;51.10;;
16387;SDS011;8303;53.446;9.988;2022-12-01T08:04:04;200.20;;;53.42;;
16387;SDS011;8303;53.446;9.988;2022-12-01T08:06:32;194.17;;;50.73;;
16387;SDS011;8303;53.446;9.988;2022-12-01T08:09:02;204.90;;;55.23;;
16387;SDS011;8303;53.446;9.988;2022-12-01T08:11:30;192.90;;;50.10;;
16387;SDS011;8303;53.446;9.988;2022-12-01T08:13:57;194.00;;;49.27;;
16387;SDS011;8303;53.446;9.988;2022-12-01T08:16:24;193.57;;;54.43;;
16387;SDS011;8303;53.446;9.988;2022-12-01T08:19:00;178.63;;;49.40;;
16387;SDS011;8303;53.446;9.988;2022-12-01T08:21:29;176.40;;;48.97;;
16387;SDS011;8303;53.446;9.988;2022-12-01T08:23:56;189.20;;;51.00;;
16387;SDS011;8303;53.446;9.988;2022-12-01T08:26:24;188.27;;;51.83;;
16387;SDS011;8303;53.446;9.988;2022-12-01T08:28:52;177.33;;;51.07;;
16387;SDS011;8303;53.446;9.988;2022-12-01T08:31:20;214.83;;;50.70;;
16387;SDS011;8303;53.446;9.988;2022-12-01T08:33:49;199.37;;;50.30;;
16387;SDS011;8303;53.446;9.988;2022-12-01T08:36:17;191.33;;;50.23;;
16387;SDS011;8303;53.446;9.988;2022-12-01T08:38:48;216.37;;;53.50;;
16387;SDS011;8303;53.446;9.988;2022-12-01T08:41:17;195.17;;;50.60;;
16387;SDS011;8303;53.446;9.988;2022-12-01T08:43:45;195.93;;;49.83;;
16387;SDS011;8303;53.446;9.988;2022-12-01T08:46:12;225.73;;;50.57;;
16387;SDS011;8303;53.446;9.988;2022-12-01T08:48:40;190.90;;;49.07;;
16387;SDS011;8303;53.446;9.988;2022-12-01T08:51:08;216.97;;;53.07;;
16387;SDS011;8303;53.446;9.988;2022-12-01T08:53:39;195.90;;;49.97;;
16387;SDS011;8303;53.446;9.988;2022-12-01T08:56:10;204.27;;;51.73;;
16387;SDS011;8303;53.446;9.988;2022-12-01T08:58:39;216.67;;;54.67;;
16387;SDS011;8303;53.446;9.988;2022-12-01T09:01:07;206.20;;;50.20;;
16387;SDS011;8303;53.446;9.988;2022-12-01T09:03:36;222.07;;;50.07;;
16387;SDS011;8303;53.446;9.988;2022-12-01T09:06:06;193.03;;;47.77;;
16387;SDS011;8303;53.446;9.988;2022-12-01T09:08:34;207.37;;;49.93;;
16387;SDS011;8303;53.446;9.988;2022-12-01T09:11:02;203.90;;;50.03;;
16387;SDS011;8303;53.446;9.988;2022-12-01T09:13:33;190.63;;;48.73;;
16387;SDS011;8303;53.446;9.988;2022-12-01T09:16:01;185.47;;;48.13;;
16387;SDS011;8303;53.446;9.988;2022-12-01T09:18:30;194.10;;;48.57;;
16387;SDS011;8303;53.446;9.988;2022-12-01T09:20:59;190.10;;;49.80;;
16387;SDS011;8303;53.446;9.988;2022-12-01T09:23:37;192.40;;;49.23;;
16387;SDS011;8303;53.446;9.988;2022-12-01T09:26:29;190.07;;;48.43;;
16387;SDS011;8303;53.446;9.988;2022-12-01T09:29:00;209.23;;;48.23;;
16387;SDS011;8303;53.446;9.988;2022-12-01T09:31:30;210.70;;;49.13;;
16387;SDS011;8303;53.446;9.988;2022-12-01T09:33:59;212.70;;;47.67;;
16387;SDS011;8303;53.446;9.988;2022-12-01T09:36:29;184.60;;;48.10;;
16387;SDS011;8303;53.446;9.988;2022-12-01T09:38:58;199.20;;;48.00;;
16387;SDS011;8303;53.446;9.988;2022-12-01T09:41:27;204.10;;;47.93;;
16387;SDS011;8303;53.446;9.988;2022-12-01T09:43:59;189.13;;;48.07;;
16387;SDS011;8303;53.446;9.988;2022-12-01T09:46:31;203.60;;;48.63;;
16387;SDS011;8303;53.446;9.988;2022-12-01T09:49:05;201.60;;;49.17;;
16387;SDS011;8303;53.446;9.988;2022-12-01T09:51:38;183.63;;;45.50;;
16387;SDS011;8303;53.446;9.988;2022-12-01T09:54:05;209.17;;;47.53;;
16387;SDS011;8303;53.446;9.988;2022-12-01T09:56:38;184.73;;;46.57;;
16387;SDS011;8303;53.446;9.988;2022-12-01T09:59:12;219.97;;;47.87;;
16387;SDS011;8303;53.446;9.988;2022-12-01T10:01:45;226.53;;;50.93;;
16387;SDS011;8303;53.446;9.988;2022-12-01T10:04:18;191.57;;;47.20;;
16387;SDS011;8303;53.446;9.988;2022-12-01T10:06:51;215.17;;;48.00;;
16387;SDS011;8303;53.446;9.988;2022-12-01T10:09:22;197.47;;;49.17;;
16387;SDS011;8303;53.446;9.988;2022-12-01T10:11:54;198.93;;;46.83;;
16387;SDS011;8303;53.446;9.988;2022-12-01T10:14:29;194.13;;;46.40;;
16387;SDS011;8303;53.446;9.988;2022-12-01T10:17:02;218.30;;;46.43;;
16387;SDS011;8303;53.446;9.988;2022-12-01T10:19:39;194.07;;;48.80;;
16387;SDS011;8303;53.446;9.988;2022-12-01T10:22:18;210.27;;;47.97;;
16387;SDS011;8303;53.446;9.988;2022-12-01T10:25:04;210.37;;;46.13;;
16387;SDS011;8303;53.446;9.988;2022-12-01T10:27:43;201.50;;;45.60;;
16387;SDS011;8303;53.446;9.988;2022-12-01T10:30:18;209.60;;;47.77;;
16387;SDS011;8303;53.446;9.988;2022-12-01T10:32:50;202.77;;;45.20;;
16387;SDS011;8303;53.446;9.988;2022-12-01T10:35:22;210.87;;;47.00;;
16387;SDS011;8303;53.446;9.988;2022-12-01T10:37:54;190.70;;;45.07;;
16387;SDS011;8303;53.446;9.988;2022-12-01T10:40:23;184.60;;;43.57;;
16387;SDS011;8303;53.446;9.988;2022-12-01T10:42:52;167.83;;;39.30;;
16387;SDS011;8303;53.446;9.988;2022-12-01T10:45:22;155.63;;;37.03;;
16387;SDS011;8303;53.446;9.988;2022-12-01T10:50:39;118.83;;;32.87;;
16387;SDS011;8303;53.446;9.988;2022-12-01T10:53:13;113.80;;;32.13;;
16387;SDS011;8303;53.446;9.988;2022-12-01T10:55:57;128.30;;;34.17;;
16387;SDS011;8303;53.446;9.988;2022-12-01T10:58:27;114.23;;;33.40;;
16387;SDS011;8303;53.446;9.988;2022-12-01T11:00:59;115.77;;;31.40;;
16387;SDS011;8303;53.446;9.988;2022-12-01T11:03:29;103.07;;;29.80;;
16387;SDS011;8303;53.446;9.988;2022-12-01T11:05:57;112.23;;;32.20;;
16387;SDS011;8303;53.446;9.988;2022-12-01T11:08:29;117.30;;;32.73;;
16387;SDS011;8303;53.446;9.988;2022-12-01T11:11:03;107.33;;;28.93;;
16387;SDS011;8303;53.446;9.988;2022-12-01T11:13:31;110.63;;;29.67;;
16387;SDS011;8303;53.446;9.988;2022-12-01T11:16:03;97.90;;;29.00;;
16387;SDS011;8303;53.446;9.988;2022-12-01T11:18:32;96.17;;;28.33;;
16387;SDS011;8303;53.446;9.988;2022-12-01T11:21:06;116.60;;;31.43;;
16387;SDS011;8303;53.446;9.988;2022-12-01T11:23:35;97.77;;;29.90;;
16387;SDS011;8303;53.446;9.988;2022-12-01T11:26:05;92.67;;;29.53;;
16387;SDS011;8303;53.446;9.988;2022-12-01T11:28:40;116.17;;;30.47;;
16387;SDS011;8303;53.446;9.988;2022-12-01T11:31:18;108.37;;;29.63;;
16387;SDS011;8303;53.446;9.988;2022-12-01T11:33:49;98.67;;;31.63;;
16387;SDS011;8303;53.446;9.988;2022-12-01T11:36:21;96.73;;;29.97;;
16387;SDS011;8303;53.446;9.988;2022-12-01T11:38:56;99.87;;;31.13;;
16387;SDS011;8303;53.446;9.988;2022-12-01T11:41:29;95.13;;;30.10;;
16387;SDS011;8303;53.446;9.988;2022-12-01T11:44:01;81.77;;;28.17;;
16387;SDS011;8303;53.446;9.988;2022-12-01T11:46:34;80.00;;;28.13;;
16387;SDS011;8303;53.446;9.988;2022-12-01T11:49:09;92.40;;;28.63;;
16387;SDS011;8303;53.446;9.988;2022-12-01T11:51:42;77.70;;;28.47;;
16387;SDS011;8303;53.446;9.988;2022-12-01T11:54:13;81.70;;;27.47;;
16387;SDS011;8303;53.446;9.988;2022-12-01T11:56:42;76.83;;;26.03;;
16387;SDS011;8303;53.446;9.988;2022-12-01T11:59:12;73.03;;;26.73;;
16387;SDS011;8303;53.446;9.988;2022-12-01T12:01:49;69.80;;;27.80;;
16387;SDS011;8303;53.446;9.988;2022-12-01T12:04:31;79.07;;;26.20;;
16387;SDS011;8303;53.446;9.988;2022-12-01T12:07:09;72.73;;;25.27;;
16387;SDS011;8303;53.446;9.988;2022-12-01T12:09:45;75.03;;;26.37;;
16387;SDS011;8303;53.446;9.988;2022-12-01T12:12:25;65.13;;;26.90;;
16387;SDS011;8303;53.446;9.988;2022-12-01T12:15:04;68.77;;;25.70;;
16387;SDS011;8303;53.446;9.988;2022-12-01T12:17:48;62.43;;;25.87;;
16387;SDS011;8303;53.446;9.988;2022-12-01T12:20:30;66.80;;;24.97;;
16387;SDS011;8303;53.446;9.988;2022-12-01T12:23:07;67.63;;;26.23;;
16387;SDS011;8303;53.446;9.988;2022-12-01T12:25:54;57.83;;;25.13;;
16387;SDS011;8303;53.446;9.988;2022-12-01T12:28:31;67.13;;;25.27;;
16387;SDS011;8303;53.446;9.988;2022-12-01T12:31:10;60.70;;;23.23;;
16387;SDS011;8303;53.446;9.988;2022-12-01T12:34:01;63.20;;;25.23;;
16387;SDS011;8303;53.446;9.988;2022-12-01T12:36:41;57.60;;;23.40;;
16387;SDS011;8303;53.446;9.988;2022-12-01T12:39:22;56.37;;;23.90;;
16387;SDS011;8303;53.446;9.988;2022-12-01T12:42:08;58.47;;;24.53;;
16387;SDS011;8303;53.446;9.988;2022-12-01T12:44:46;63.43;;;23.87;;
16387;SDS011;8303;53.446;9.988;2022-12-01T12:47:31;58.37;;;23.03;;
16387;SDS011;8303;53.446;9.988;2022-12-01T12:50:14;61.33;;;24.50;;
16387;SDS011;8303;53.446;9.988;2022-12-01T12:52:48;60.93;;;23.63;;
16387;SDS011;8303;53.446;9.988;2022-12-01T12:55:21;63.53;;;23.77;;
16387;SDS011;8303;53.446;9.988;2022-12-01T12:57:52;56.60;;;22.93;;
16387;SDS011;8303;53.446;9.988;2022-12-01T13:00:23;70.67;;;24.47;;
16387;SDS011;8303;53.446;9.988;2022-12-01T13:02:51;68.43;;;25.00;;
16387;SDS011;8303;53.446;9.988;2022-12-01T13:05:24;66.20;;;24.93;;
16387;SDS011;8303;53.446;9.988;2022-12-01T13:07:58;70.40;;;24.37;;
16387;SDS011;8303;53.446;9.988;2022-12-01T13:10:31;64.40;;;24.13;;
16387;SDS011;8303;53.446;9.988;2022-12-01T13:13:08;75.30;;;26.37;;
16387;SDS011;8303;53.446;9.988;2022-12-01T13:15:42;73.50;;;25.00;;
16387;SDS011;8303;53.446;9.988;2022-12-01T13:18:14;73.60;;;24.73;;
16387;SDS011;8303;53.446;9.988;2022-12-01T13:20:51;72.83;;;25.43;;
16387;SDS011;8303;53.446;9.988;2022-12-01T13:23:20;88.43;;;26.93;;
16387;SDS011;8303;53.446;9.988;2022-12-01T13:25:50;69.03;;;25.13;;
16387;SDS011;8303;53.446;9.988;2022-12-01T13:28:20;79.07;;;25.60;;
16387;SDS011;8303;53.446;9.988;2022-12-01T13:30:57;78.43;;;25.03;;
16387;SDS011;8303;53.446;9.988;2022-12-01T13:33:26;79.47;;;26.10;;
16387;SDS011;8303;53.446;9.988;2022-12-01T13:35:56;91.73;;;25.20;;
16387;SDS011;8303;53.446;9.988;2022-12-01T13:38:24;83.00;;;23.93;;
16387;SDS011;8303;53.446;9.988;2022-12-01T13:41:10;83.27;;;25.10;;
16387;SDS011;8303;53.446;9.988;2022-12-01T13:43:51;72.30;;;22.93;;
16387;SDS011;8303;53.446;9.988;2022-12-01T13:46:30;72.67;;;22.87;;
16387;SDS011;8303;53.446;9.988;2022-12-01T13:48:58;75.87;;;23.20;;
16387;SDS011;8303;53.446;9.988;2022-12-01T13:51:27;82.90;;;23.33;;
16387;SDS011;8303;53.446;9.988;2022-12-01T13:54:34;63.30;;;20.73;;
16387;SDS011;8303;53.446;9.988;2022-12-01T13:57:02;72.83;;;20.93;;
16387;SDS011;8303;53.446;9.988;2022-12-01T14:05:53;64.13;;;18.27;;
16387;SDS011;8303;53.446;9.988;2022-12-01T14:08:23;64.00;;;19.07;;
16387;SDS011;8303;53.446;9.988;2022-12-01T14:10:53;56.07;;;19.37;;
16387;SDS011;8303;53.446;9.988;2022-12-01T14:13:22;49.43;;;18.43;;
16387;SDS011;8303;53.446;9.988;2022-12-01T14:15:54;65.47;;;18.97;;
16387;SDS011;8303;53.446;9.988;2022-12-01T14:18:29;55.20;;;19.13;;
16387;SDS011;8303;53.446;9.988;2022-12-01T14:20:59;55.67;;;18.53;;
16387;SDS011;8303;53.446;9.988;2022-12-01T14:23:30;60.67;;;17.33;;
16387;SDS011;8303;53.446;9.988;2022-12-01T14:26:09;50.83;;;17.30;;
16387;SDS011;8303;53.446;9.988;2022-12-01T14:34:45;40.63;;;16.07;;
16387;SDS011;8303;53.446;9.988;2022-12-01T14:37:20;46.73;;;15.30;;
16387;SDS011;8303;53.446;9.988;2022-12-01T14:39:54;48.53;;;16.57;;
16387;SDS011;8303;53.446;9.988;2022-12-01T14:42:25;47.37;;;16.53;;
16387;SDS011;8303;53.446;9.988;2022-12-01T14:45:14;41.70;;;16.83;;
16387;SDS011;8303;53.446;9.988;2022-12-01T14:47:44;51.73;;;18.00;;
16387;SDS011;8303;53.446;9.988;2022-12-01T14:50:18;48.27;;;17.60;;
16387;SDS011;8303;53.446;9.988;2022-12-01T14:52:49;49.87;;;18.10;;
16387;SDS011;8303;53.446;9.988;2022-12-01T14:55:22;59.10;;;19.57;;
16387;SDS011;8303;53.446;9.988;2022-12-01T14:57:58;59.17;;;19.60;;
16387;SDS011;8303;53.446;9.988;2022-12-01T15:00:28;58.43;;;18.03;;
16387;SDS011;8303;53.446;9.988;2022-12-01T15:02:57;47.83;;;18.40;;
16387;SDS011;8303;53.446;9.988;2022-12-01T15:05:27;54.40;;;18.67;;
16387;SDS011;8303;53.446;9.988;2022-12-01T15:07:57;57.50;;;18.90;;
16387;SDS011;8303;53.446;9.988;2022-12-01T15:10:27;49.93;;;17.77;;
16387;SDS011;8303;53.446;9.988;2022-12-01T15:13:10;58.57;;;20.50;;
16387;SDS011;8303;53.446;9.988;2022-12-01T15:15:47;59.70;;;19.47;;
16387;SDS011;8303;53.446;9.988;2022-12-01T15:18:19;64.20;;;20.10;;
16387;SDS011;8303;53.446;9.988;2022-12-01T15:20:48;58.37;;;19.53;;
16387;SDS011;8303;53.446;9.988;2022-12-01T15:23:20;70.80;;;24.70;;
16387;SDS011;8303;53.446;9.988;2022-12-01T15:25:49;73.73;;;23.70;;
16387;SDS011;8303;53.446;9.988;2022-12-01T15:28:16;88.17;;;25.37;;
16387;SDS011;8303;53.446;9.988;2022-12-01T15:30:46;82.73;;;24.93;;
16387;SDS011;8303;53.446;9.988;2022-12-01T15:33:17;91.33;;;25.90;;
16387;SDS011;8303;53.446;9.988;2022-12-01T15:35:47;89.50;;;24.33;;
16387;SDS011;8303;53.446;9.988;2022-12-01T15:38:16;76.10;;;24.47;;
16387;SDS011;8303;53.446;9.988;2022-12-01T15:40:46;70.57;;;23.47;;
16387;SDS011;8303;53.446;9.988;2022-12-01T15:43:16;81.63;;;23.70;;
16387;SDS011;8303;53.446;9.988;2022-12-01T15:45:49;72.70;;;23.20;;
16387;SDS011;8303;53.446;9.988;2022-12-01T15:48:23;64.47;;;22.53;;
16387;SDS011;8303;53.446;9.988;2022-12-01T15:51:01;74.57;;;22.87;;
16387;SDS011;8303;53.446;9.988;2022-12-01T15:53:40;72.63;;;23.17;;
16387;SDS011;8303;53.446;9.988;2022-12-01T15:56:14;79.93;;;23.63;;
16387;SDS011;8303;53.446;9.988;2022-12-01T15:58:42;67.23;;;22.53;;
16387;SDS011;8303;53.446;9.988;2022-12-01T16:01:12;74.10;;;23.67;;
16387;SDS011;8303;53.446;9.988;2022-12-01T16:03:48;73.03;;;22.67;;
16387;SDS011;8303;53.446;9.988;2022-12-01T16:06:19;82.43;;;23.17;;
16387;SDS011;8303;53.446;9.988;2022-12-01T16:08:50;74.13;;;23.90;;
16387;SDS011;8303;53.446;9.988;2022-12-01T16:11:22;78.27;;;23.80;;
16387;SDS011;8303;53.446;9.988;2022-12-01T16:13:55;83.20;;;23.70;;
16387;SDS011;8303;53.446;9.988;2022-12-01T16:16:29;73.07;;;21.97;;
16387;SDS011;8303;53.446;9.988;2022-12-01T16:19:02;79.90;;;22.63;;
16387;SDS011;8303;53.446;9.988;2022-12-01T16:21:47;74.43;;;23.73;;
16387;SDS011;8303;53.446;9.988;2022-12-01T16:24:18;80.97;;;24.33;;
16387;SDS011;8303;53.446;9.988;2022-12-01T16:26:50;75.70;;;23.57;;
16387;SDS011;8303;53.446;9.988;2022-12-01T16:29:19;93.47;;;26.30;;
16387;SDS011;8303;53.446;9.988;2022-12-01T16:31:48;92.20;;;26.87;;
16387;SDS011;8303;53.446;9.988;2022-12-01T16:34:17;102.93;;;26.33;;
16387;SDS011;8303;53.446;9.988;2022-12-01T16:36:46;107.27;;;29.27;;
16387;SDS011;8303;53.446;9.988;2022-12-01T16:39:13;103.67;;;29.20;;
16387;SDS011;8303;53.446;9.988;2022-12-01T16:41:41;95.63;;;29.07;;
16387;SDS011;8303;53.446;9.988;2022-12-01T16:44:12;112.27;;;32.33;;
16387;SDS011;8303;53.446;9.988;2022-12-01T16:46:39;108.70;;;28.80;;
16387;SDS011;8303;53.446;9.988;2022-12-01T16:49:06;110.60;;;30.73;;
16387;SDS011;8303;53.446;9.988;2022-12-01T16:51:34;111.47;;;30.13;;
16387;SDS011;8303;53.446;9.988;2022-12-01T16:54:01;116.80;;;30.43;;
16387;SDS011;8303;53.446;9.988;2022-12-01T16:56:29;126.23;;;33.53;;
16387;SDS011;8303;53.446;9.988;2022-12-01T16:58:56;126.47;;;30.97;;
16387;SDS011;8303;53.446;9.988;2022-12-01T17:01:26;115.13;;;31.53;;
16387;SDS011;8303;53.446;9.988;2022-12-01T17:03:53;120.73;;;30.70;;
16387;SDS011;8303;53.446;9.988;2022-12-01T17:06:20;108.30;;;30.50;;
16387;SDS011;8303;53.446;9.988;2022-12-01T17:08:47;128.97;;;32.93;;
16387;SDS011;8303;53.446;9.988;2022-12-01T17:11:14;126.97;;;31.53;;
16387;SDS011;8303;53.446;9.988;2022-12-01T17:13:42;128.30;;;34.10;;
16387;SDS011;8303;53.446;9.988;2022-12-01T17:16:09;124.73;;;32.60;;
16387;SDS011;8303;53.446;9.988;2022-12-01T17:18:37;126.27;;;32.07;;
16387;SDS011;8303;53.446;9.988;2022-12-01T17:21:05;118.60;;;31.30;;
16387;SDS011;8303;53.446;9.988;2022-12-01T17:23:34;116.77;;;33.30;;
16387;SDS011;8303;53.446;9.988;2022-12-01T17:26:05;127.67;;;32.33;;
16387;SDS011;8303;53.446;9.988;2022-12-01T17:28:34;123.40;;;30.37;;
16387;SDS011;8303;53.446;9.988;2022-12-01T17:31:02;123.93;;;33.07;;
16387;SDS011;8303;53.446;9.988;2022-12-01T17:33:29;129.23;;;33.07;;
16387;SDS011;8303;53.446;9.988;2022-12-01T17:36:02;129.13;;;33.00;;
16387;SDS011;8303;53.446;9.988;2022-12-01T17:38:32;129.37;;;32.43;;
16387;SDS011;8303;53.446;9.988;2022-12-01T17:41:00;119.63;;;32.57;;
16387;SDS011;8303;53.446;9.988;2022-12-01T17:43:29;140.33;;;33.30;;
16387;SDS011;8303;53.446;9.988;2022-12-01T17:45:56;129.83;;;32.27;;
16387;SDS011;8303;53.446;9.988;2022-12-01T17:48:23;142.53;;;33.80;;
16387;SDS011;8303;53.446;9.988;2022-12-01T17:50:49;129.30;;;32.03;;
16387;SDS011;8303;53.446;9.988;2022-12-01T17:53:18;121.93;;;32.53;;
16387;SDS011;8303;53.446;9.988;2022-12-01T17:55:45;128.43;;;32.90;;
16387;SDS011;8303;53.446;9.988;2022-12-01T17:58:12;127.80;;;33.93;;
16387;SDS011;8303;53.446;9.988;2022-12-01T18:00:38;134.73;;;30.67;;
16387;SDS011;8303;53.446;9.988;2022-12-01T18:03:05;136.83;;;34.10;;
16387;SDS011;8303;53.446;9.988;2022-12-01T18:05:32;117.27;;;33.73;;
16387;SDS011;8303;53.446;9.988;2022-12-01T18:07:59;123.97;;;33.30;;
16387;SDS011;8303;53.446;9.988;2022-12-01T18:10:27;118.10;;;32.03;;
16387;SDS011;8303;53.446;9.988;2022-12-01T18:12:54;104.77;;;31.27;;
16387;SDS011;8303;53.446;9.988;2022-12-01T18:15:21;128.80;;;31.03;;
16387;SDS011;8303;53.446;9.988;2022-12-01T18:17:49;133.73;;;32.70;;
16387;SDS011;8303;53.446;9.988;2022-12-01T18:20:16;124.97;;;31.97;;
16387;SDS011;8303;53.446;9.988;2022-12-01T18:22:43;121.37;;;30.73;;
16387;SDS011;8303;53.446;9.988;2022-12-01T18:25:11;113.33;;;29.50;;
16387;SDS011;8303;53.446;9.988;2022-12-01T18:27:39;119.43;;;28.00;;
16387;SDS011;8303;53.446;9.988;2022-12-01T18:30:07;109.77;;;28.30;;
16387;SDS011;8303;53.446;9.988;2022-12-01T18:32:34;114.27;;;32.63;;
16387;SDS011;8303;53.446;9.988;2022-12-01T18:35:01;101.43;;;29.53;;
16387;SDS011;8303;53.446;9.988;2022-12-01T18:37:29;127.40;;;31.83;;
16387;SDS011;8303;53.446;9.988;2022-12-01T18:39:56;110.27;;;29.17;;
16387;SDS011;8303;53.446;9.988;2022-12-01T18:42:23;107.63;;;31.03;;
16387;SDS011;8303;53.446;9.988;2022-12-01T18:44:51;105.97;;;29.83;;
16387;SDS011;8303;53.446;9.988;2022-12-01T18:47:18;107.20;;;30.60;;
16387;SDS011;8303;53.446;9.988;2022-12-01T18:49:45;105.67;;;29.97;;
16387;SDS011;8303;53.446;9.988;2022-12-01T18:52:12;123.47;;;29.83;;
16387;SDS011;8303;53.446;9.988;2022-12-01T18:54:39;117.27;;;29.03;;
16387;SDS011;8303;53.446;9.988;2022-12-01T18:57:06;118.47;;;29.83;;
16387;SDS011;8303;53.446;9.988;2022-12-01T18:59:32;109.93;;;31.60;;
16387;SDS011;8303;53.446;9.988;2022-12-01T19:02:01;115.47;;;31.23;;
16387;SDS011;8303;53.446;9.988;2022-12-01T19:04:28;109.47;;;29.70;;
16387;SDS011;8303;53.446;9.988;2022-12-01T19:06:55;104.17;;;29.20;;
16387;SDS011;8303;53.446;9.988;2022-12-01T19:09:22;120.33;;;31.07;;
16387;SDS011;8303;53.446;9.988;2022-12-01T19:11:49;102.40;;;30.27;;
16387;SDS011;8303;53.446;9.988;2022-12-01T19:14:24;104.80;;;27.13;;
16387;SDS011;8303;53.446;9.988;2022-12-01T19:16:52;107.07;;;31.43;;
16387;SDS011;8303;53.446;9.988;2022-12-01T19:19:21;112.10;;;31.77;;
16387;SDS011;8303;53.446;9.988;2022-12-01T19:21:48;89.77;;;28.83;;
16387;SDS011;8303;53.446;9.988;2022-12-01T19:24:15;112.17;;;30.13;;
16387;SDS011;8303;53.446;9.988;2022-12-01T19:26:44;97.50;;;28.50;;
16387;SDS011;8303;53.446;9.988;2022-12-01T19:29:11;86.17;;;28.93;;
16387;SDS011;8303;53.446;9.988;2022-12-01T19:31:38;88.87;;;27.23;;
16387;SDS011;8303;53.446;9.988;2022-12-01T19:34:05;100.87;;;28.80;;
16387;SDS011;8303;53.446;9.988;2022-12-01T19:36:34;82.07;;;28.30;;
16387;SDS011;8303;53.446;9.988;2022-12-01T19:39:01;92.03;;;27.73;;
16387;SDS011;8303;53.446;9.988;2022-12-01T19:41:28;75.40;;;26.97;;
16387;SDS011;8303;53.446;9.988;2022-12-01T19:43:56;76.57;;;25.57;;
16387;SDS011;8303;53.446;9.988;2022-12-01T19:46:24;80.53;;;26.30;;
16387;SDS011;8303;53.446;9.988;2022-12-01T19:48:53;78.17;;;25.93;;
16387;SDS011;8303;53.446;9.988;2022-12-01T19:51:21;84.80;;;26.37;;
16387;SDS011;8303;53.446;9.988;2022-12-01T19:53:51;87.47;;;26.27;;
16387;SDS011;8303;53.446;9.988;2022-12-01T19:56:18;78.80;;;25.97;;
16387;SDS011;8303;53.446;9.988;2022-12-01T19:58:45;77.77;;;25.87;;
16387;SDS011;8303;53.446;9.988;2022-12-01T20:01:13;84.53;;;27.37;;
16387;SDS011;8303;53.446;9.988;2022-12-01T20:03:43;76.07;;;26.13;;
16387;SDS011;8303;53.446;9.988;2022-12-01T20:06:11;75.37;;;26.23;;
16387;SDS011;8303;53.446;9.988;2022-12-01T20:08:39;78.80;;;30.73;;
16387;SDS011;8303;53.446;9.988;2022-12-01T20:11:07;72.70;;;26.20;;
16387;SDS011;8303;53.446;9.988;2022-12-01T20:13:35;78.83;;;26.73;;
16387;SDS011;8303;53.446;9.988;2022-12-01T20:16:04;86.40;;;25.93;;
16387;SDS011;8303;53.446;9.988;2022-12-01T20:18:32;79.10;;;27.47;;
16387;SDS011;8303;53.446;9.988;2022-12-01T20:21:04;74.93;;;26.20;;
16387;SDS011;8303;53.446;9.988;2022-12-01T20:23:32;79.80;;;25.77;;
16387;SDS011;8303;53.446;9.988;2022-12-01T20:25:59;82.30;;;28.53;;
16387;SDS011;8303;53.446;9.988;2022-12-01T20:28:28;72.17;;;25.87;;
16387;SDS011;8303;53.446;9.988;2022-12-01T20:30:55;88.00;;;27.67;;
16387;SDS011;8303;53.446;9.988;2022-12-01T20:33:23;74.20;;;27.47;;
16387;SDS011;8303;53.446;9.988;2022-12-01T20:35:51;76.53;;;27.30;;
16387;SDS011;8303;53.446;9.988;2022-12-01T20:38:18;82.37;;;26.73;;
16387;SDS011;8303;53.446;9.988;2022-12-01T20:40:48;87.27;;;28.13;;
16387;SDS011;8303;53.446;9.988;2022-12-01T20:43:15;83.83;;;27.13;;
16387;SDS011;8303;53.446;9.988;2022-12-01T20:45:44;77.97;;;27.70;;